sensor_id;sensor_type;location;lat;lon;timestamp;P1;durP1;ratioP1;P2;durP2;ratioP2
64609;SDS011;51019;46.090;6.350;2022-08-07T00:02:19;13.82;;;5.38;;
64609;SDS011;51019;46.090;6.350;2022-08-07T00:04:46;12.65;;;5.40;;
64609;SDS011;51019;46.090;6.350;2022-08-07T00:07:13;17.63;;;5.90;;
64609;SDS011;51019;46.090;6.350;2022-08-07T00:09:42;14.43;;;5.63;;
64609;SDS011;51019;46.090;6.350;2022-08-07T00:12:12;13.43;;;5.68;;
64609;SDS011;51019;46.090;6.350;2022-08-07T00:14:40;15.52;;;6.05;;
64609;SDS011;51019;46.090;6.350;2022-08-07T00:17:07;13.05;;;6.07;;
64609;SDS011;51019;46.090;6.350;2022-08-07T00:19:35;13.45;;;5.85;;
64609;SDS011;51019;46.090;6.350;2022-08-07T00:22:02;16.48;;;7.07;;
64609;SDS011;51019;46.090;6.350;2022-08-07T00:24:29;13.23;;;5.88;;
64609;SDS011;51019;46.090;6.350;2022-08-07T00:26:56;13.55;;;6.63;;
64609;SDS011;51019;46.090;6.350;2022-08-07T00:29:26;18.52;;;6.13;;
64609;SDS011;51019;46.090;6.350;2022-08-07T00:31:53;14.63;;;6.22;;
64609;SDS011;51019;46.090;6.350;2022-08-07T00:34:23;14.20;;;5.55;;
64609;SDS011;51019;46.090;6.350;2022-08-07T00:36:51;13.32;;;5.68;;
64609;SDS011;51019;46.090;6.350;2022-08-07T00:39:18;14.40;;;6.28;;
64609;SDS011;51019;46.090;6.350;2022-08-07T00:41:49;14.05;;;5.63;;
64609;SDS011;51019;46.090;6.350;2022-08-07T00:46:46;14.75;;;5.85;;
64609;SDS011;51019;46.090;6.350;2022-08-07T00:49:15;12.10;;;5.43;;
64609;SDS011;51019;46.090;6.350;2022-08-07T00:51:43;12.48;;;5.70;;
64609;SDS011;51019;46.090;6.350;2022-08-07T00:54:11;14.23;;;5.90;;
64609;SDS011;51019;46.090;6.350;2022-08-07T00:56:40;13.98;;;5.97;;
64609;SDS011;51019;46.090;6.350;2022-08-07T00:59:08;13.40;;;6.05;;
64609;SDS011;51019;46.090;6.350;2022-08-07T01:01:36;13.68;;;5.95;;
64609;SDS011;51019;46.090;6.350;2022-08-07T01:04:06;12.38;;;5.80;;
64609;SDS011;51019;46.090;6.350;2022-08-07T01:06:34;12.02;;;5.35;;
64609;SDS011;51019;46.090;6.350;2022-08-07T01:09:02;13.60;;;5.63;;
64609;SDS011;51019;46.090;6.350;2022-08-07T01:11:34;15.45;;;5.97;;
64609;SDS011;51019;46.090;6.350;2022-08-07T01:14:01;14.45;;;6.10;;
64609;SDS011;51019;46.090;6.350;2022-08-07T01:16:29;13.80;;;5.45;;
64609;SDS011;51019;46.090;6.350;2022-08-07T01:18:58;15.35;;;6.20;;
64609;SDS011;51019;46.090;6.350;2022-08-07T01:21:27;16.95;;;7.00;;
64609;SDS011;51019;46.090;6.350;2022-08-07T01:23:55;13.27;;;5.70;;
64609;SDS011;51019;46.090;6.350;2022-08-07T01:26:23;12.73;;;6.05;;
64609;SDS011;51019;46.090;6.350;2022-08-07T01:28:52;14.43;;;6.18;;
64609;SDS011;51019;46.090;6.350;2022-08-07T01:31:21;13.93;;;6.20;;
64609;SDS011;51019;46.090;6.350;2022-08-07T01:33:52;13.63;;;6.40;;
64609;SDS011;51019;46.090;6.350;2022-08-07T01:36:19;14.57;;;6.10;;
64609;SDS011;51019;46.090;6.350;2022-08-07T01:38:48;12.25;;;5.80;;
64609;SDS011;51019;46.090;6.350;2022-08-07T01:41:17;14.32;;;6.13;;
64609;SDS011;51019;46.090;6.350;2022-08-07T01:43:46;14.10;;;6.28;;
64609;SDS011;51019;46.090;6.350;2022-08-07T01:46:15;14.23;;;5.90;;
64609;SDS011;51019;46.090;6.350;2022-08-07T01:48:43;14.98;;;6.72;;
64609;SDS011;51019;46.090;6.350;2022-08-07T01:51:12;12.77;;;5.53;;
64609;SDS011;51019;46.090;6.350;2022-08-07T01:53:43;12.80;;;6.00;;
64609;SDS011;51019;46.090;6.350;2022-08-07T01:56:15;13.50;;;6.00;;
64609;SDS011;51019;46.090;6.350;2022-08-07T01:58:48;13.05;;;5.45;;
64609;SDS011;51019;46.090;6.350;2022-08-07T02:01:21;13.85;;;5.70;;
64609;SDS011;51019;46.090;6.350;2022-08-07T02:03:53;14.50;;;6.20;;
64609;SDS011;51019;46.090;6.350;2022-08-07T02:08:54;13.55;;;6.40;;
64609;SDS011;51019;46.090;6.350;2022-08-07T02:11:25;13.02;;;5.93;;
64609;SDS011;51019;46.090;6.350;2022-08-07T02:13:53;15.00;;;5.50;;
64609;SDS011;51019;46.090;6.350;2022-08-07T02:16:23;12.70;;;5.72;;
64609;SDS011;51019;46.090;6.350;2022-08-07T02:18:51;14.32;;;6.28;;
64609;SDS011;51019;46.090;6.350;2022-08-07T02:21:20;14.77;;;7.07;;
64609;SDS011;51019;46.090;6.350;2022-08-07T02:23:48;13.23;;;6.75;;
64609;SDS011;51019;46.090;6.350;2022-08-07T02:26:18;15.13;;;6.55;;
64609;SDS011;51019;46.090;6.350;2022-08-07T02:28:49;15.10;;;6.32;;
64609;SDS011;51019;46.090;6.350;2022-08-07T02:31:18;14.20;;;6.28;;
64609;SDS011;51019;46.090;6.350;2022-08-07T02:33:48;14.02;;;6.80;;
64609;SDS011;51019;46.090;6.350;2022-08-07T02:36:18;16.65;;;6.40;;
64609;SDS011;51019;46.090;6.350;2022-08-07T02:38:46;16.58;;;6.93;;
64609;SDS011;51019;46.090;6.350;2022-08-07T02:41:14;13.50;;;6.72;;
64609;SDS011;51019;46.090;6.350;2022-08-07T02:43:41;14.95;;;6.97;;
64609;SDS011;51019;46.090;6.350;2022-08-07T02:46:11;13.55;;;6.30;;
64609;SDS011;51019;46.090;6.350;2022-08-07T02:48:38;14.90;;;6.93;;
64609;SDS011;51019;46.090;6.350;2022-08-07T02:51:08;16.55;;;6.25;;
64609;SDS011;51019;46.090;6.350;2022-08-07T02:53:38;14.73;;;6.03;;
64609;SDS011;51019;46.090;6.350;2022-08-07T02:56:10;15.75;;;6.10;;
64609;SDS011;51019;46.090;6.350;2022-08-07T02:58:40;13.30;;;6.05;;
64609;SDS011;51019;46.090;6.350;2022-08-07T03:01:10;14.05;;;6.15;;
64609;SDS011;51019;46.090;6.350;2022-08-07T03:03:38;14.98;;;6.57;;
64609;SDS011;51019;46.090;6.350;2022-08-07T03:06:05;13.63;;;6.20;;
64609;SDS011;51019;46.090;6.350;2022-08-07T03:08:33;14.20;;;6.80;;
64609;SDS011;51019;46.090;6.350;2022-08-07T03:11:01;14.43;;;6.45;;
64609;SDS011;51019;46.090;6.350;2022-08-07T03:13:28;13.63;;;6.25;;
64609;SDS011;51019;46.090;6.350;2022-08-07T03:15:55;13.82;;;6.07;;
64609;SDS011;51019;46.090;6.350;2022-08-07T03:18:25;12.82;;;5.85;;
64609;SDS011;51019;46.090;6.350;2022-08-07T03:20:53;13.80;;;6.10;;
64609;SDS011;51019;46.090;6.350;2022-08-07T03:23:21;13.73;;;6.57;;
64609;SDS011;51019;46.090;6.350;2022-08-07T03:25:50;15.30;;;6.75;;
64609;SDS011;51019;46.090;6.350;2022-08-07T03:28:18;12.90;;;6.70;;
64609;SDS011;51019;46.090;6.350;2022-08-07T03:30:46;15.23;;;7.15;;
64609;SDS011;51019;46.090;6.350;2022-08-07T03:33:38;16.27;;;6.80;;
64609;SDS011;51019;46.090;6.350;2022-08-07T03:36:07;14.13;;;6.45;;
64609;SDS011;51019;46.090;6.350;2022-08-07T03:38:35;15.93;;;6.82;;
64609;SDS011;51019;46.090;6.350;2022-08-07T03:41:05;14.40;;;6.85;;
64609;SDS011;51019;46.090;6.350;2022-08-07T03:43:33;15.43;;;6.80;;
64609;SDS011;51019;46.090;6.350;2022-08-07T03:46:01;13.95;;;6.43;;
64609;SDS011;51019;46.090;6.350;2022-08-07T03:48:30;13.48;;;6.40;;
64609;SDS011;51019;46.090;6.350;2022-08-07T03:51:00;13.40;;;6.25;;
64609;SDS011;51019;46.090;6.350;2022-08-07T03:53:28;14.15;;;6.63;;
64609;SDS011;51019;46.090;6.350;2022-08-07T03:55:56;15.23;;;6.43;;
64609;SDS011;51019;46.090;6.350;2022-08-07T03:58:24;13.43;;;6.40;;
64609;SDS011;51019;46.090;6.350;2022-08-07T04:00:52;13.02;;;6.47;;
64609;SDS011;51019;46.090;6.350;2022-08-07T04:03:22;13.70;;;6.25;;
64609;SDS011;51019;46.090;6.350;2022-08-07T04:05:50;14.50;;;6.75;;
64609;SDS011;51019;46.090;6.350;2022-08-07T04:08:19;14.43;;;6.70;;
64609;SDS011;51019;46.090;6.350;2022-08-07T04:10:47;14.60;;;6.55;;
64609;SDS011;51019;46.090;6.350;2022-08-07T04:13:16;12.63;;;6.25;;
64609;SDS011;51019;46.090;6.350;2022-08-07T04:15:44;17.00;;;6.63;;
64609;SDS011;51019;46.090;6.350;2022-08-07T04:18:11;14.65;;;6.65;;
64609;SDS011;51019;46.090;6.350;2022-08-07T04:20:39;13.75;;;6.05;;
64609;SDS011;51019;46.090;6.350;2022-08-07T04:23:08;13.20;;;6.53;;
64609;SDS011;51019;46.090;6.350;2022-08-07T04:25:37;13.05;;;5.93;;
64609;SDS011;51019;46.090;6.350;2022-08-07T04:28:07;13.50;;;6.35;;
64609;SDS011;51019;46.090;6.350;2022-08-07T04:30:36;15.13;;;6.50;;
64609;SDS011;51019;46.090;6.350;2022-08-07T04:33:05;12.85;;;6.18;;
64609;SDS011;51019;46.090;6.350;2022-08-07T04:35:33;15.18;;;7.05;;
64609;SDS011;51019;46.090;6.350;2022-08-07T04:38:04;13.73;;;6.30;;
64609;SDS011;51019;46.090;6.350;2022-08-07T04:40:33;15.60;;;6.03;;
64609;SDS011;51019;46.090;6.350;2022-08-07T04:43:02;12.73;;;6.07;;
64609;SDS011;51019;46.090;6.350;2022-08-07T04:45:33;13.20;;;6.30;;
64609;SDS011;51019;46.090;6.350;2022-08-07T04:48:06;13.35;;;6.18;;
64609;SDS011;51019;46.090;6.350;2022-08-07T04:50:38;14.77;;;6.60;;
64609;SDS011;51019;46.090;6.350;2022-08-07T04:53:11;15.07;;;6.10;;
64609;SDS011;51019;46.090;6.350;2022-08-07T04:55:45;13.25;;;6.38;;
64609;SDS011;51019;46.090;6.350;2022-08-07T04:58:21;14.00;;;6.20;;
64609;SDS011;51019;46.090;6.350;2022-08-07T05:00:54;17.40;;;6.80;;
64609;SDS011;51019;46.090;6.350;2022-08-07T05:03:26;16.38;;;7.22;;
64609;SDS011;51019;46.090;6.350;2022-08-07T05:06:01;13.50;;;6.07;;
64609;SDS011;51019;46.090;6.350;2022-08-07T05:08:35;14.70;;;6.40;;
64609;SDS011;51019;46.090;6.350;2022-08-07T05:11:11;15.88;;;6.85;;
64609;SDS011;51019;46.090;6.350;2022-08-07T05:13:44;16.40;;;6.38;;
64609;SDS011;51019;46.090;6.350;2022-08-07T05:16:17;15.75;;;7.22;;
64609;SDS011;51019;46.090;6.350;2022-08-07T05:18:48;13.68;;;6.10;;
64609;SDS011;51019;46.090;6.350;2022-08-07T05:21:20;15.07;;;7.13;;
64609;SDS011;51019;46.090;6.350;2022-08-07T05:23:52;14.70;;;6.63;;
64609;SDS011;51019;46.090;6.350;2022-08-07T05:26:25;16.38;;;7.68;;
64609;SDS011;51019;46.090;6.350;2022-08-07T05:28:56;15.52;;;6.50;;
64609;SDS011;51019;46.090;6.350;2022-08-07T05:31:27;16.15;;;6.93;;
64609;SDS011;51019;46.090;6.350;2022-08-07T05:33:58;14.23;;;6.97;;
64609;SDS011;51019;46.090;6.350;2022-08-07T05:36:26;14.95;;;6.90;;
64609;SDS011;51019;46.090;6.350;2022-08-07T05:38:57;14.57;;;7.00;;
64609;SDS011;51019;46.090;6.350;2022-08-07T05:41:26;15.75;;;6.97;;
64609;SDS011;51019;46.090;6.350;2022-08-07T05:43:54;15.82;;;7.45;;
64609;SDS011;51019;46.090;6.350;2022-08-07T05:46:25;15.65;;;6.53;;
64609;SDS011;51019;46.090;6.350;2022-08-07T05:48:53;17.25;;;6.70;;
64609;SDS011;51019;46.090;6.350;2022-08-07T05:51:20;15.80;;;6.60;;
64609;SDS011;51019;46.090;6.350;2022-08-07T05:53:49;14.38;;;6.57;;
64609;SDS011;51019;46.090;6.350;2022-08-07T05:56:17;13.68;;;6.85;;
64609;SDS011;51019;46.090;6.350;2022-08-07T05:58:48;15.30;;;7.53;;
64609;SDS011;51019;46.090;6.350;2022-08-07T06:01:18;14.55;;;6.53;;
64609;SDS011;51019;46.090;6.350;2022-08-07T06:03:47;14.30;;;6.82;;
64609;SDS011;51019;46.090;6.350;2022-08-07T06:06:18;14.43;;;6.50;;
64609;SDS011;51019;46.090;6.350;2022-08-07T06:08:48;13.70;;;6.53;;
64609;SDS011;51019;46.090;6.350;2022-08-07T06:11:17;13.35;;;6.40;;
64609;SDS011;51019;46.090;6.350;2022-08-07T06:13:45;15.30;;;6.38;;
64609;SDS011;51019;46.090;6.350;2022-08-07T06:16:13;13.10;;;6.38;;
64609;SDS011;51019;46.090;6.350;2022-08-07T06:18:45;15.73;;;6.80;;
64609;SDS011;51019;46.090;6.350;2022-08-07T06:21:14;16.13;;;6.25;;
64609;SDS011;51019;46.090;6.350;2022-08-07T06:23:42;15.30;;;5.97;;
64609;SDS011;51019;46.090;6.350;2022-08-07T06:26:10;14.38;;;6.30;;
64609;SDS011;51019;46.090;6.350;2022-08-07T06:28:48;13.52;;;5.97;;
64609;SDS011;51019;46.090;6.350;2022-08-07T06:31:17;13.73;;;5.85;;
64609;SDS011;51019;46.090;6.350;2022-08-07T06:33:46;16.05;;;6.30;;
64609;SDS011;51019;46.090;6.350;2022-08-07T06:36:15;13.88;;;6.07;;
64609;SDS011;51019;46.090;6.350;2022-08-07T06:38:42;15.55;;;6.47;;
64609;SDS011;51019;46.090;6.350;2022-08-07T06:41:11;13.50;;;6.40;;
64609;SDS011;51019;46.090;6.350;2022-08-07T06:43:45;14.75;;;7.25;;
64609;SDS011;51019;46.090;6.350;2022-08-07T06:46:13;15.88;;;6.60;;
64609;SDS011;51019;46.090;6.350;2022-08-07T06:48:41;15.30;;;6.65;;
64609;SDS011;51019;46.090;6.350;2022-08-07T06:51:13;15.60;;;8.07;;
64609;SDS011;51019;46.090;6.350;2022-08-07T06:53:43;17.95;;;7.70;;
64609;SDS011;51019;46.090;6.350;2022-08-07T06:56:13;16.95;;;9.07;;
64609;SDS011;51019;46.090;6.350;2022-08-07T06:59:03;29.33;;;13.73;;
64609;SDS011;51019;46.090;6.350;2022-08-07T07:01:32;35.75;;;15.25;;
64609;SDS011;51019;46.090;6.350;2022-08-07T07:04:00;20.00;;;8.23;;
64609;SDS011;51019;46.090;6.350;2022-08-07T07:06:31;24.05;;;10.90;;
64609;SDS011;51019;46.090;6.350;2022-08-07T07:09:14;15.18;;;7.20;;
64609;SDS011;51019;46.090;6.350;2022-08-07T07:11:43;19.20;;;8.23;;
64609;SDS011;51019;46.090;6.350;2022-08-07T07:14:20;18.80;;;8.10;;
64609;SDS011;51019;46.090;6.350;2022-08-07T07:16:50;17.25;;;7.90;;
64609;SDS011;51019;46.090;6.350;2022-08-07T07:19:24;18.75;;;8.88;;
64609;SDS011;51019;46.090;6.350;2022-08-07T07:21:56;15.73;;;6.97;;
64609;SDS011;51019;46.090;6.350;2022-08-07T07:24:24;16.02;;;7.35;;
64609;SDS011;51019;46.090;6.350;2022-08-07T07:26:52;15.40;;;6.85;;
64609;SDS011;51019;46.090;6.350;2022-08-07T07:29:23;14.90;;;7.00;;
64609;SDS011;51019;46.090;6.350;2022-08-07T07:31:53;14.00;;;6.57;;
64609;SDS011;51019;46.090;6.350;2022-08-07T07:34:23;14.25;;;6.88;;
64609;SDS011;51019;46.090;6.350;2022-08-07T07:37:01;17.08;;;8.20;;
64609;SDS011;51019;46.090;6.350;2022-08-07T07:39:30;22.95;;;10.23;;
64609;SDS011;51019;46.090;6.350;2022-08-07T07:41:59;21.98;;;8.90;;
64609;SDS011;51019;46.090;6.350;2022-08-07T07:44:28;17.92;;;8.10;;
64609;SDS011;51019;46.090;6.350;2022-08-07T07:46:57;17.27;;;8.20;;
64609;SDS011;51019;46.090;6.350;2022-08-07T07:49:27;16.38;;;7.43;;
64609;SDS011;51019;46.090;6.350;2022-08-07T07:51:56;18.38;;;8.52;;
64609;SDS011;51019;46.090;6.350;2022-08-07T07:54:26;18.95;;;8.95;;
64609;SDS011;51019;46.090;6.350;2022-08-07T07:56:55;21.65;;;9.93;;
64609;SDS011;51019;46.090;6.350;2022-08-07T07:59:24;16.67;;;6.88;;
64609;SDS011;51019;46.090;6.350;2022-08-07T08:01:53;17.95;;;8.35;;
64609;SDS011;51019;46.090;6.350;2022-08-07T08:04:21;14.40;;;6.40;;
64609;SDS011;51019;46.090;6.350;2022-08-07T08:06:50;16.70;;;6.82;;
64609;SDS011;51019;46.090;6.350;2022-08-07T08:09:19;14.27;;;6.03;;
64609;SDS011;51019;46.090;6.350;2022-08-07T08:11:51;13.55;;;6.35;;
64609;SDS011;51019;46.090;6.350;2022-08-07T08:14:20;17.58;;;7.03;;
64609;SDS011;51019;46.090;6.350;2022-08-07T08:16:48;16.00;;;7.07;;
64609;SDS011;51019;46.090;6.350;2022-08-07T08:19:18;15.52;;;7.68;;
64609;SDS011;51019;46.090;6.350;2022-08-07T08:21:51;18.33;;;8.77;;
64609;SDS011;51019;46.090;6.350;2022-08-07T08:24:40;19.92;;;9.55;;
64609;SDS011;51019;46.090;6.350;2022-08-07T08:27:28;17.48;;;7.80;;
64609;SDS011;51019;46.090;6.350;2022-08-07T08:30:01;16.98;;;8.00;;
64609;SDS011;51019;46.090;6.350;2022-08-07T08:32:31;16.30;;;7.68;;
64609;SDS011;51019;46.090;6.350;2022-08-07T08:35:06;18.45;;;7.57;;
64609;SDS011;51019;46.090;6.350;2022-08-07T08:37:36;14.85;;;6.65;;
64609;SDS011;51019;46.090;6.350;2022-08-07T08:40:05;18.27;;;8.40;;
64609;SDS011;51019;46.090;6.350;2022-08-07T08:42:38;15.43;;;7.15;;
64609;SDS011;51019;46.090;6.350;2022-08-07T08:45:13;15.52;;;6.82;;
64609;SDS011;51019;46.090;6.350;2022-08-07T08:47:51;16.88;;;6.95;;
64609;SDS011;51019;46.090;6.350;2022-08-07T08:50:30;15.20;;;7.20;;
64609;SDS011;51019;46.090;6.350;2022-08-07T08:53:02;14.10;;;6.78;;
64609;SDS011;51019;46.090;6.350;2022-08-07T08:55:33;15.02;;;6.85;;
64609;SDS011;51019;46.090;6.350;2022-08-07T08:58:07;13.27;;;6.65;;
64609;SDS011;51019;46.090;6.350;2022-08-07T09:00:40;13.27;;;6.28;;
64609;SDS011;51019;46.090;6.350;2022-08-07T09:03:13;13.90;;;6.00;;
64609;SDS011;51019;46.090;6.350;2022-08-07T09:05:50;13.82;;;5.82;;
64609;SDS011;51019;46.090;6.350;2022-08-07T09:08:24;13.57;;;5.78;;
64609;SDS011;51019;46.090;6.350;2022-08-07T09:11:04;14.32;;;6.20;;
64609;SDS011;51019;46.090;6.350;2022-08-07T09:13:42;13.73;;;5.95;;
64609;SDS011;51019;46.090;6.350;2022-08-07T09:16:22;12.90;;;5.70;;
64609;SDS011;51019;46.090;6.350;2022-08-07T09:19:05;13.57;;;5.70;;
64609;SDS011;51019;46.090;6.350;2022-08-07T09:21:44;15.48;;;6.55;;
64609;SDS011;51019;46.090;6.350;2022-08-07T09:24:23;14.50;;;5.63;;
64609;SDS011;51019;46.090;6.350;2022-08-07T09:27:01;13.43;;;6.35;;
64609;SDS011;51019;46.090;6.350;2022-08-07T09:29:37;14.10;;;6.50;;
64609;SDS011;51019;46.090;6.350;2022-08-07T09:32:16;14.65;;;6.10;;
64609;SDS011;51019;46.090;6.350;2022-08-07T09:34:53;14.60;;;6.40;;
64609;SDS011;51019;46.090;6.350;2022-08-07T09:37:32;13.20;;;5.88;;
64609;SDS011;51019;46.090;6.350;2022-08-07T09:40:07;16.50;;;6.32;;
64609;SDS011;51019;46.090;6.350;2022-08-07T09:42:46;13.95;;;6.28;;
64609;SDS011;51019;46.090;6.350;2022-08-07T09:45:22;14.55;;;6.18;;
64609;SDS011;51019;46.090;6.350;2022-08-07T09:48:14;13.43;;;5.85;;
64609;SDS011;51019;46.090;6.350;2022-08-07T09:50:54;13.88;;;5.93;;
64609;SDS011;51019;46.090;6.350;2022-08-07T09:53:30;14.15;;;6.20;;
64609;SDS011;51019;46.090;6.350;2022-08-07T09:59:11;15.45;;;6.32;;
64609;SDS011;51019;46.090;6.350;2022-08-07T10:02:04;15.43;;;6.88;;
64609;SDS011;51019;46.090;6.350;2022-08-07T10:04:53;12.40;;;6.00;;
64609;SDS011;51019;46.090;6.350;2022-08-07T10:07:47;13.77;;;6.00;;
64609;SDS011;51019;46.090;6.350;2022-08-07T10:10:32;14.15;;;6.43;;
64609;SDS011;51019;46.090;6.350;2022-08-07T10:13:12;13.55;;;5.72;;
64609;SDS011;51019;46.090;6.350;2022-08-07T10:15:53;13.90;;;6.57;;
64609;SDS011;51019;46.090;6.350;2022-08-07T10:21:39;13.20;;;6.15;;
64609;SDS011;51019;46.090;6.350;2022-08-07T10:27:25;14.55;;;5.47;;
64609;SDS011;51019;46.090;6.350;2022-08-07T10:30:12;13.55;;;6.10;;
64609;SDS011;51019;46.090;6.350;2022-08-07T10:38:42;13.95;;;6.63;;
64609;SDS011;51019;46.090;6.350;2022-08-07T10:41:28;13.48;;;5.75;;
64609;SDS011;51019;46.090;6.350;2022-08-07T10:44:12;12.70;;;5.65;;
64609;SDS011;51019;46.090;6.350;2022-08-07T10:46:46;12.88;;;5.97;;
64609;SDS011;51019;46.090;6.350;2022-08-07T10:49:21;14.00;;;5.88;;
64609;SDS011;51019;46.090;6.350;2022-08-07T10:51:54;14.25;;;6.50;;
64609;SDS011;51019;46.090;6.350;2022-08-07T10:54:28;16.08;;;7.20;;
64609;SDS011;51019;46.090;6.350;2022-08-07T10:57:07;13.52;;;6.00;;
64609;SDS011;51019;46.090;6.350;2022-08-07T10:59:46;14.60;;;6.15;;
64609;SDS011;51019;46.090;6.350;2022-08-07T11:02:25;13.27;;;5.97;;
64609;SDS011;51019;46.090;6.350;2022-08-07T11:04:58;13.25;;;5.80;;
64609;SDS011;51019;46.090;6.350;2022-08-07T11:07:37;13.25;;;6.10;;
64609;SDS011;51019;46.090;6.350;2022-08-07T11:10:18;12.05;;;5.25;;
64609;SDS011;51019;46.090;6.350;2022-08-07T11:12:54;13.18;;;5.88;;
64609;SDS011;51019;46.090;6.350;2022-08-07T11:15:26;13.68;;;6.15;;
64609;SDS011;51019;46.090;6.350;2022-08-07T11:20:29;14.07;;;5.50;;
64609;SDS011;51019;46.090;6.350;2022-08-07T11:23:06;13.30;;;6.00;;
64609;SDS011;51019;46.090;6.350;2022-08-07T11:25:41;12.45;;;5.57;;
64609;SDS011;51019;46.090;6.350;2022-08-07T11:28:15;12.57;;;5.78;;
64609;SDS011;51019;46.090;6.350;2022-08-07T11:30:48;13.25;;;5.70;;
64609;SDS011;51019;46.090;6.350;2022-08-07T11:33:22;13.45;;;5.65;;
64609;SDS011;51019;46.090;6.350;2022-08-07T11:35:57;13.82;;;5.80;;
64609;SDS011;51019;46.090;6.350;2022-08-07T11:38:36;12.70;;;5.78;;
64609;SDS011;51019;46.090;6.350;2022-08-07T11:41:27;13.52;;;5.95;;
64609;SDS011;51019;46.090;6.350;2022-08-07T11:44:00;14.80;;;5.97;;
64609;SDS011;51019;46.090;6.350;2022-08-07T11:46:42;12.38;;;5.60;;
64609;SDS011;51019;46.090;6.350;2022-08-07T11:52:35;12.48;;;5.38;;
64609;SDS011;51019;46.090;6.350;2022-08-07T11:55:13;15.88;;;5.97;;
64609;SDS011;51019;46.090;6.350;2022-08-07T11:58:04;13.10;;;6.10;;
64609;SDS011;51019;46.090;6.350;2022-08-07T12:00:44;12.82;;;5.63;;
64609;SDS011;51019;46.090;6.350;2022-08-07T12:06:24;12.40;;;5.45;;
64609;SDS011;51019;46.090;6.350;2022-08-07T12:09:00;12.25;;;5.47;;
64609;SDS011;51019;46.090;6.350;2022-08-07T12:11:34;14.77;;;6.68;;
64609;SDS011;51019;46.090;6.350;2022-08-07T12:14:12;12.77;;;5.32;;
64609;SDS011;51019;46.090;6.350;2022-08-07T12:16:45;12.10;;;4.88;;
64609;SDS011;51019;46.090;6.350;2022-08-07T12:19:17;12.43;;;5.40;;
64609;SDS011;51019;46.090;6.350;2022-08-07T12:21:53;11.82;;;5.38;;
64609;SDS011;51019;46.090;6.350;2022-08-07T12:24:30;13.05;;;5.70;;
64609;SDS011;51019;46.090;6.350;2022-08-07T12:27:04;11.23;;;4.95;;
64609;SDS011;51019;46.090;6.350;2022-08-07T12:29:40;11.70;;;4.90;;
64609;SDS011;51019;46.090;6.350;2022-08-07T12:32:14;12.10;;;5.00;;
64609;SDS011;51019;46.090;6.350;2022-08-07T12:34:46;10.77;;;4.43;;
64609;SDS011;51019;46.090;6.350;2022-08-07T12:37:16;12.30;;;5.05;;
64609;SDS011;51019;46.090;6.350;2022-08-07T12:39:46;11.35;;;4.80;;
64609;SDS011;51019;46.090;6.350;2022-08-07T12:42:15;11.27;;;4.80;;
64609;SDS011;51019;46.090;6.350;2022-08-07T12:44:48;12.02;;;5.00;;
64609;SDS011;51019;46.090;6.350;2022-08-07T12:47:20;11.35;;;4.60;;
64609;SDS011;51019;46.090;6.350;2022-08-07T12:49:56;11.43;;;4.85;;
64609;SDS011;51019;46.090;6.350;2022-08-07T12:52:35;12.07;;;4.75;;
64609;SDS011;51019;46.090;6.350;2022-08-07T12:55:16;11.55;;;4.68;;
64609;SDS011;51019;46.090;6.350;2022-08-07T12:57:50;11.73;;;4.68;;
64609;SDS011;51019;46.090;6.350;2022-08-07T13:00:21;10.77;;;3.72;;
64609;SDS011;51019;46.090;6.350;2022-08-07T13:03:00;11.15;;;4.40;;
64609;SDS011;51019;46.090;6.350;2022-08-07T13:05:43;10.60;;;3.97;;
64609;SDS011;51019;46.090;6.350;2022-08-07T13:08:28;10.60;;;4.13;;
64609;SDS011;51019;46.090;6.350;2022-08-07T13:11:07;12.45;;;4.30;;
64609;SDS011;51019;46.090;6.350;2022-08-07T13:13:50;10.75;;;4.05;;
64609;SDS011;51019;46.090;6.350;2022-08-07T13:16:31;12.27;;;4.28;;
64609;SDS011;51019;46.090;6.350;2022-08-07T13:19:11;10.95;;;3.90;;
64609;SDS011;51019;46.090;6.350;2022-08-07T13:21:49;10.95;;;4.40;;
64609;SDS011;51019;46.090;6.350;2022-08-07T13:24:22;11.52;;;3.70;;
64609;SDS011;51019;46.090;6.350;2022-08-07T13:26:55;10.70;;;4.10;;
64609;SDS011;51019;46.090;6.350;2022-08-07T13:29:35;12.10;;;3.97;;
64609;SDS011;51019;46.090;6.350;2022-08-07T13:32:13;11.52;;;4.30;;
64609;SDS011;51019;46.090;6.350;2022-08-07T13:34:45;11.07;;;3.85;;
64609;SDS011;51019;46.090;6.350;2022-08-07T13:37:30;12.27;;;3.92;;
64609;SDS011;51019;46.090;6.350;2022-08-07T13:40:08;11.80;;;4.32;;
64609;SDS011;51019;46.090;6.350;2022-08-07T13:42:41;11.25;;;3.72;;
64609;SDS011;51019;46.090;6.350;2022-08-07T13:45:09;10.95;;;4.15;;
64609;SDS011;51019;46.090;6.350;2022-08-07T13:47:40;11.40;;;3.95;;
64609;SDS011;51019;46.090;6.350;2022-08-07T13:50:08;11.10;;;4.20;;
64609;SDS011;51019;46.090;6.350;2022-08-07T13:52:38;11.02;;;4.20;;
64609;SDS011;51019;46.090;6.350;2022-08-07T13:55:10;10.25;;;3.58;;
64609;SDS011;51019;46.090;6.350;2022-08-07T13:57:40;11.00;;;4.28;;
64609;SDS011;51019;46.090;6.350;2022-08-07T14:00:10;10.60;;;4.05;;
64609;SDS011;51019;46.090;6.350;2022-08-07T14:02:38;10.95;;;4.00;;
64609;SDS011;51019;46.090;6.350;2022-08-07T14:07:39;11.60;;;4.28;;
64609;SDS011;51019;46.090;6.350;2022-08-07T14:10:08;10.65;;;3.83;;
64609;SDS011;51019;46.090;6.350;2022-08-07T14:12:38;10.38;;;3.90;;
64609;SDS011;51019;46.090;6.350;2022-08-07T14:15:19;9.85;;;3.63;;
64609;SDS011;51019;46.090;6.350;2022-08-07T14:17:56;11.23;;;4.13;;
64609;SDS011;51019;46.090;6.350;2022-08-07T14:20:28;9.65;;;3.67;;
64609;SDS011;51019;46.090;6.350;2022-08-07T14:23:00;10.02;;;3.83;;
64609;SDS011;51019;46.090;6.350;2022-08-07T14:25:32;11.70;;;3.83;;
64609;SDS011;51019;46.090;6.350;2022-08-07T14:28:03;11.15;;;3.97;;
64609;SDS011;51019;46.090;6.350;2022-08-07T14:30:35;12.27;;;4.18;;
64609;SDS011;51019;46.090;6.350;2022-08-07T14:33:05;11.18;;;3.78;;
64609;SDS011;51019;46.090;6.350;2022-08-07T14:35:35;10.82;;;3.80;;
64609;SDS011;51019;46.090;6.350;2022-08-07T14:38:03;9.75;;;3.60;;
64609;SDS011;51019;46.090;6.350;2022-08-07T14:40:32;10.18;;;3.92;;
64609;SDS011;51019;46.090;6.350;2022-08-07T14:43:02;12.57;;;3.78;;
64609;SDS011;51019;46.090;6.350;2022-08-07T14:45:32;10.48;;;3.63;;
64609;SDS011;51019;46.090;6.350;2022-08-07T14:48:08;9.95;;;3.72;;
64609;SDS011;51019;46.090;6.350;2022-08-07T14:50:40;10.40;;;3.42;;
64609;SDS011;51019;46.090;6.350;2022-08-07T14:53:09;9.38;;;3.40;;
64609;SDS011;51019;46.090;6.350;2022-08-07T14:55:37;11.55;;;3.85;;
64609;SDS011;51019;46.090;6.350;2022-08-07T14:58:08;9.90;;;3.80;;
64609;SDS011;51019;46.090;6.350;2022-08-07T15:00:39;10.48;;;3.75;;
64609;SDS011;51019;46.090;6.350;2022-08-07T15:03:10;10.05;;;3.78;;
64609;SDS011;51019;46.090;6.350;2022-08-07T15:05:38;12.23;;;3.85;;
64609;SDS011;51019;46.090;6.350;2022-08-07T15:08:08;10.55;;;4.13;;
64609;SDS011;51019;46.090;6.350;2022-08-07T15:10:38;10.23;;;3.80;;
64609;SDS011;51019;46.090;6.350;2022-08-07T15:13:09;11.10;;;3.75;;
64609;SDS011;51019;46.090;6.350;2022-08-07T15:15:43;12.35;;;4.20;;
64609;SDS011;51019;46.090;6.350;2022-08-07T15:18:17;11.15;;;3.88;;
64609;SDS011;51019;46.090;6.350;2022-08-07T15:20:47;10.75;;;4.03;;
64609;SDS011;51019;46.090;6.350;2022-08-07T15:23:18;10.68;;;3.65;;
64609;SDS011;51019;46.090;6.350;2022-08-07T15:25:52;10.27;;;3.78;;
64609;SDS011;51019;46.090;6.350;2022-08-07T15:28:23;10.00;;;3.20;;
64609;SDS011;51019;46.090;6.350;2022-08-07T15:30:54;10.17;;;3.87;;
64609;SDS011;51019;46.090;6.350;2022-08-07T15:33:28;9.20;;;3.45;;
64609;SDS011;51019;46.090;6.350;2022-08-07T15:35:58;11.13;;;4.32;;
64609;SDS011;51019;46.090;6.350;2022-08-07T15:38:27;11.35;;;3.97;;